Time;durP1;ratioP1;P1;durP2;ratioP2;P2;SDS_P1;SDS_P2;PMS_P1;PMS_P2;Temp;Humidity;BMP_temperature;BMP_pressure;BME280_temperature;BME280_humidity;BME280_pressure;Samples;Min_cycle;Max_cycle;Signal;HPM_P1;HPM_P2
2022/10/11 00:00:30;;;;;;;7.88;3.30;;;;;;;;;;5032726;28;20374;-61
2022/10/11 00:02:56;;;;;;;8.18;2.40;;;;;;;;;;5032093;28;20025;-61
2022/10/11 00:05:23;;;;;;;10.20;2.10;;;;;;;;;;5032513;28;20025;-61
2022/10/11 00:07:49;;;;;;;4.60;2.55;;;;;;;;;;5032681;28;20079;-61
2022/10/11 00:10:15;;;;;;;6.75;2.00;;;;;;;;;;5032116;28;20500;-61
2022/10/11 00:12:41;;;;;;;10.40;2.45;;;;;;;;;;5032564;28;20087;-61
2022/10/11 00:15:08;;;;;;;5.63;1.88;;;;;;;;;;5032238;28;20091;-61
2022/10/11 00:17:35;;;;;;;6.13;2.17;;;;;;;;;;5032129;28;20032;-61
2022/10/11 00:20:01;;;;;;;6.35;2.17;;;;;;;;;;5032181;28;20013;-61
2022/10/11 00:22:27;;;;;;;5.47;2.15;;;;;;;;;;5032322;28;20090;-61
2022/10/11 00:24:53;;;;;;;6.40;2.10;;;;;;;;;;5032311;28;20143;-61
2022/10/11 00:27:19;;;;;;;4.03;2.40;;;;;;;;;;5032221;28;20048;-61
2022/10/11 00:29:45;;;;;;;5.32;2.22;;;;;;;;;;5032338;28;20037;-61
2022/10/11 00:32:11;;;;;;;6.25;2.55;;;;;;;;;;5031849;28;20033;-61
2022/10/11 00:34:37;;;;;;;6.20;2.17;;;;;;;;;;5032227;28;20048;-61
2022/10/11 00:37:03;;;;;;;5.20;2.67;;;;;;;;;;5032096;28;20108;-61
2022/10/11 00:39:29;;;;;;;8.93;2.58;;;;;;;;;;5031757;28;20029;-61
2022/10/11 00:41:55;;;;;;;12.13;3.38;;;;;;;;;;5032074;28;20057;-61
2022/10/11 00:44:24;;;;;;;9.05;2.22;;;;;;;;;;5032231;28;20029;-61
2022/10/11 00:46:56;;;;;;;10.20;3.00;;;;;;;;;;5031778;28;20029;-61
2022/10/11 00:49:27;;;;;;;5.00;2.28;;;;;;;;;;5031927;28;20031;-61
2022/10/11 00:51:56;;;;;;;10.88;2.78;;;;;;;;;;5032114;28;20037;-61
2022/10/11 00:54:24;;;;;;;11.23;4.97;;;;;;;;;;5031887;28;20434;-61
2022/10/11 00:56:52;;;;;;;8.00;2.70;;;;;;;;;;5032073;28;20041;-61
2022/10/11 00:59:21;;;;;;;9.48;3.33;;;;;;;;;;5031385;28;20022;-61
2022/10/11 01:01:47;;;;;;;10.43;2.80;;;;;;;;;;5033176;28;20030;-61
2022/10/11 01:04:14;;;;;;;6.25;2.47;;;;;;;;;;5035867;28;20029;-61
2022/10/11 01:06:40;;;;;;;6.43;2.40;;;;;;;;;;5035623;28;20447;-61
2022/10/11 01:09:06;;;;;;;7.20;2.38;;;;;;;;;;5035780;28;20021;-61
2022/10/11 01:11:35;;;;;;;9.30;2.85;;;;;;;;;;5035724;28;20029;-61
2022/10/11 01:14:26;;;;;;;9.45;2.22;;;;;;;;;;5035491;28;20037;-61
2022/10/11 01:17:01;;;;;;;8.73;2.35;;;;;;;;;;5035779;28;20037;-61
2022/10/11 01:19:46;;;;;;;9.48;2.20;;;;;;;;;;5035494;28;20493;-61
2022/10/11 01:22:30;;;;;;;5.15;2.35;;;;;;;;;;5035479;28;20033;-61
2022/10/11 01:25:11;;;;;;;8.43;2.72;;;;;;;;;;5035550;28;20386;-61
2022/10/11 01:27:40;;;;;;;6.78;2.40;;;;;;;;;;5035571;28;20080;-61
2022/10/11 01:30:25;;;;;;;7.60;1.75;;;;;;;;;;5035153;28;20091;-61
2022/10/11 01:33:02;;;;;;;5.15;2.30;;;;;;;;;;5035233;28;20037;-61
2022/10/11 01:35:46;;;;;;;7.43;2.30;;;;;;;;;;5034894;28;20022;-61
2022/10/11 01:38:16;;;;;;;4.13;2.08;;;;;;;;;;5035345;28;20497;-61
2022/10/11 01:40:48;;;;;;;6.40;2.60;;;;;;;;;;5035167;28;20029;-61
2022/10/11 01:43:15;;;;;;;8.43;2.10;;;;;;;;;;5034681;28;20037;-61
2022/10/11 01:45:41;;;;;;;7.07;3.38;;;;;;;;;;5035287;28;20331;-61
2022/10/11 01:48:12;;;;;;;8.13;2.47;;;;;;;;;;5034950;28;20167;-61
2022/10/11 01:50:41;;;;;;;5.07;2.28;;;;;;;;;;5035215;28;20101;-61
2022/10/11 01:53:27;;;;;;;5.75;2.10;;;;;;;;;;5035148;28;20492;-63
2022/10/11 01:56:12;;;;;;;6.05;2.40;;;;;;;;;;5031200;28;20041;-63
2022/10/11 01:58:46;;;;;;;6.72;2.35;;;;;;;;;;5034561;28;20021;-63
2022/10/11 02:01:22;;;;;;;7.45;2.60;;;;;;;;;;5034795;28;20393;-63
2022/10/11 02:03:52;;;;;;;8.30;2.38;;;;;;;;;;5034787;28;20548;-63
2022/10/11 02:06:22;;;;;;;5.93;2.38;;;;;;;;;;5034742;28;20036;-63
2022/10/11 02:09:03;;;;;;;6.88;2.17;;;;;;;;;;5034623;28;20033;-63
2022/10/11 02:11:33;;;;;;;4.57;2.00;;;;;;;;;;5034224;28;20115;-63
2022/10/11 02:14:19;;;;;;;7.40;2.35;;;;;;;;;;5033688;28;20035;-63
2022/10/11 02:16:49;;;;;;;7.85;2.42;;;;;;;;;;5034578;28;20053;-63
2022/10/11 02:19:17;;;;;;;5.25;2.00;;;;;;;;;;5033392;28;20487;-63
2022/10/11 02:21:46;;;;;;;7.22;2.03;;;;;;;;;;5034560;28;20466;-63
2022/10/11 02:24:24;;;;;;;5.63;2.80;;;;;;;;;;5034247;28;20496;-63
2022/10/11 02:26:53;;;;;;;6.05;2.10;;;;;;;;;;5034106;28;20625;-63
2022/10/11 02:29:21;;;;;;;3.50;1.92;;;;;;;;;;5034307;28;20061;-63
2022/10/11 02:31:48;;;;;;;8.60;2.13;;;;;;;;;;5034453;28;20030;-63
2022/10/11 02:34:16;;;;;;;5.93;2.50;;;;;;;;;;5034040;28;20058;-63
2022/10/11 02:36:42;;;;;;;7.22;2.33;;;;;;;;;;5034034;28;20042;-63
2022/10/11 02:39:13;;;;;;;4.53;1.77;;;;;;;;;;5034239;28;20026;-63
2022/10/11 02:41:41;;;;;;;9.70;2.58;;;;;;;;;;5034020;28;20036;-63
2022/10/11 02:44:10;;;;;;;7.90;2.35;;;;;;;;;;5034029;28;20040;-63
2022/10/11 02:46:37;;;;;;;6.05;2.58;;;;;;;;;;5033994;28;20030;-63
2022/10/11 02:49:03;;;;;;;4.20;2.03;;;;;;;;;;5034108;28;20063;-63
2022/10/11 02:51:30;;;;;;;5.50;2.10;;;;;;;;;;5033635;28;20385;-63
2022/10/11 02:53:56;;;;;;;7.28;1.85;;;;;;;;;;5033990;28;20537;-63
2022/10/11 02:56:22;;;;;;;4.80;2.15;;;;;;;;;;5033402;28;20037;-63
2022/10/11 02:58:48;;;;;;;8.23;2.45;;;;;;;;;;5033931;28;20021;-63
2022/10/11 03:01:15;;;;;;;6.47;1.98;;;;;;;;;;5033518;28;20124;-63
2022/10/11 03:03:41;;;;;;;4.88;2.03;;;;;;;;;;5033658;28;20536;-63
2022/10/11 03:06:08;;;;;;;6.30;2.40;;;;;;;;;;5033835;28;20025;-63
2022/10/11 03:08:34;;;;;;;5.18;2.35;;;;;;;;;;5033575;28;20113;-63
2022/10/11 03:11:00;;;;;;;9.23;2.90;;;;;;;;;;5033334;28;20144;-63
2022/10/11 03:13:26;;;;;;;6.53;2.03;;;;;;;;;;5033359;28;20108;-63
2022/10/11 03:15:53;;;;;;;6.43;2.00;;;;;;;;;;5033451;28;20040;-63
2022/10/11 03:18:19;;;;;;;4.72;1.85;;;;;;;;;;5033324;28;20052;-63
2022/10/11 03:20:45;;;;;;;3.30;1.90;;;;;;;;;;5032518;28;20040;-63
2022/10/11 03:23:12;;;;;;;8.15;2.55;;;;;;;;;;5033216;28;20025;-63
2022/10/11 03:25:38;;;;;;;10.45;2.00;;;;;;;;;;5032854;28;20032;-63
2022/10/11 03:28:05;;;;;;;3.80;1.80;;;;;;;;;;5033079;28;20037;-63
2022/10/11 03:30:31;;;;;;;11.07;2.50;;;;;;;;;;5032404;28;20018;-63
2022/10/11 03:32:57;;;;;;;6.15;1.83;;;;;;;;;;5033164;28;20017;-63
2022/10/11 03:35:23;;;;;;;7.22;2.17;;;;;;;;;;5032842;28;20043;-63
2022/10/11 03:37:50;;;;;;;3.67;2.10;;;;;;;;;;5032526;28;20025;-63
2022/10/11 03:40:16;;;;;;;6.60;2.45;;;;;;;;;;5032803;28;20025;-63
2022/10/11 03:42:42;;;;;;;5.40;2.40;;;;;;;;;;5031846;28;20152;-63
2022/10/11 03:45:09;;;;;;;24.17;4.45;;;;;;;;;;5032490;28;20132;-63
2022/10/11 03:47:35;;;;;;;2.88;1.60;;;;;;;;;;5031965;28;20448;-63
2022/10/11 03:50:01;;;;;;;5.10;2.03;;;;;;;;;;5032632;28;20059;-63
2022/10/11 03:52:28;;;;;;;5.85;2.33;;;;;;;;;;5032841;28;20481;-63
2022/10/11 03:54:54;;;;;;;5.57;2.00;;;;;;;;;;5032634;28;20125;-63
2022/10/11 03:57:20;;;;;;;7.15;1.90;;;;;;;;;;5032641;28;20033;-63
2022/10/11 03:59:47;;;;;;;5.68;2.08;;;;;;;;;;5031985;28;20037;-63
2022/10/11 04:02:13;;;;;;;5.68;2.10;;;;;;;;;;5025687;28;20033;-63
2022/10/11 04:04:39;;;;;;;9.30;1.90;;;;;;;;;;5030582;28;20365;-63
2022/10/11 04:07:05;;;;;;;5.25;1.52;;;;;;;;;;5032210;28;20056;-63
2022/10/11 04:09:31;;;;;;;5.30;1.80;;;;;;;;;;5032258;28;20125;-63
2022/10/11 04:11:57;;;;;;;5.55;2.22;;;;;;;;;;5030888;28;20540;-63
2022/10/11 04:14:24;;;;;;;4.60;2.10;;;;;;;;;;5032077;28;20497;-63
2022/10/11 04:16:50;;;;;;;5.20;2.00;;;;;;;;;;5033029;28;20105;-63
2022/10/11 04:19:16;;;;;;;5.78;1.75;;;;;;;;;;5030814;28;20017;-63
2022/10/11 04:21:42;;;;;;;5.70;1.50;;;;;;;;;;5030177;28;20032;-63
2022/10/11 04:24:10;;;;;;;5.28;2.00;;;;;;;;;;5031824;28;20030;-63
2022/10/11 04:26:36;;;;;;;2.97;1.67;;;;;;;;;;5032537;28;20067;-63
2022/10/11 04:29:03;;;;;;;5.47;2.17;;;;;;;;;;5030228;28;20052;-63
2022/10/11 04:31:29;;;;;;;5.32;2.15;;;;;;;;;;5029440;28;20029;-63
2022/10/11 04:33:56;;;;;;;5.53;1.75;;;;;;;;;;5030539;28;20029;-63
2022/10/11 04:36:22;;;;;;;6.28;2.35;;;;;;;;;;5030544;28;20100;-63
2022/10/11 04:38:48;;;;;;;7.90;1.90;;;;;;;;;;5031683;28;20034;-63
2022/10/11 04:41:15;;;;;;;7.13;1.85;;;;;;;;;;5029791;28;20025;-63
2022/10/11 04:43:41;;;;;;;4.70;1.30;;;;;;;;;;5029205;28;20034;-63
2022/10/11 04:46:07;;;;;;;5.03;1.52;;;;;;;;;;5027512;28;20025;-63
2022/10/11 04:48:33;;;;;;;8.75;1.75;;;;;;;;;;5034282;28;20075;-63
2022/10/11 04:50:59;;;;;;;2.28;1.38;;;;;;;;;;5020861;28;20061;-63
2022/10/11 04:53:26;;;;;;;7.20;1.98;;;;;;;;;;5027951;28;20449;-63
2022/10/11 04:56:06;;;;;;;3.95;1.75;;;;;;;;;;5031508;28;20121;-63
2022/10/11 04:58:32;;;;;;;5.85;1.92;;;;;;;;;;5031925;28;20033;-63
2022/10/11 05:00:59;;;;;;;5.22;1.80;;;;;;;;;;5031679;28;20029;-63
2022/10/11 05:03:25;;;;;;;6.30;1.55;;;;;;;;;;5032763;28;20025;-63
2022/10/11 05:05:52;;;;;;;5.18;1.45;;;;;;;;;;5031210;28;20112;-63
2022/10/11 05:08:18;;;;;;;16.33;3.22;;;;;;;;;;5031995;28;20109;-63
2022/10/11 05:10:55;;;;;;;7.65;2.83;;;;;;;;;;5027853;28;20056;-63
2022/10/11 05:13:22;;;;;;;4.25;1.33;;;;;;;;;;5034054;28;20026;-63
2022/10/11 05:15:48;;;;;;;3.20;1.48;;;;;;;;;;5033094;28;20041;-63
2022/10/11 05:18:14;;;;;;;3.97;1.50;;;;;;;;;;5031453;28;20440;-63
2022/10/11 05:20:40;;;;;;;4.18;1.40;;;;;;;;;;5031361;28;20055;-63
2022/10/11 05:23:07;;;;;;;5.80;2.13;;;;;;;;;;5031654;28;20064;-63
2022/10/11 05:25:33;;;;;;;6.10;1.80;;;;;;;;;;5031663;28;20543;-63
2022/10/11 05:27:59;;;;;;;7.18;1.77;;;;;;;;;;5031193;28;20029;-63
2022/10/11 05:30:25;;;;;;;8.45;1.60;;;;;;;;;;5030511;28;20028;-63
2022/10/11 05:32:51;;;;;;;7.05;1.98;;;;;;;;;;5029061;28;20033;-63
2022/10/11 05:35:17;;;;;;;4.15;1.45;;;;;;;;;;5027927;28;20034;-63
2022/10/11 05:37:44;;;;;;;4.75;1.40;;;;;;;;;;5027819;28;20397;-63
2022/10/11 05:40:10;;;;;;;4.85;1.60;;;;;;;;;;5029626;28;20104;-63
2022/10/11 05:42:37;;;;;;;2.40;1.67;;;;;;;;;;5035489;28;20528;-63
2022/10/11 05:45:04;;;;;;;7.35;2.28;;;;;;;;;;5034580;28;20033;-63
2022/10/11 05:47:30;;;;;;;4.75;1.55;;;;;;;;;;5026380;28;20039;-62
2022/10/11 05:49:56;;;;;;;6.15;2.22;;;;;;;;;;5034368;28;20096;-62
2022/10/11 05:52:22;;;;;;;9.43;2.20;;;;;;;;;;5041248;28;20078;-62
2022/10/11 05:54:48;;;;;;;5.43;1.75;;;;;;;;;;5048896;28;20037;-62
2022/10/11 05:57:15;;;;;;;6.30;1.65;;;;;;;;;;5052854;28;20120;-62
2022/10/11 05:59:41;;;;;;;3.88;1.88;;;;;;;;;;5043834;28;20025;-62
2022/10/11 06:02:11;;;;;;;5.45;2.00;;;;;;;;;;5029020;28;20083;-62
2022/10/11 06:04:37;;;;;;;7.30;1.73;;;;;;;;;;5029190;28;20040;-62
2022/10/11 06:07:03;;;;;;;5.65;1.60;;;;;;;;;;5032184;28;20485;-62
2022/10/11 06:09:30;;;;;;;4.55;1.70;;;;;;;;;;5031600;28;20088;-62
2022/10/11 06:11:56;;;;;;;3.22;1.80;;;;;;;;;;5034399;28;20037;-62
2022/10/11 06:14:23;;;;;;;4.80;1.95;;;;;;;;;;5047471;28;20112;-62
2022/10/11 06:16:49;;;;;;;7.57;2.30;;;;;;;;;;5039634;28;20025;-63
2022/10/11 06:19:15;;;;;;;6.70;1.83;;;;;;;;;;5032669;28;20083;-63
2022/10/11 06:21:41;;;;;;;8.95;1.90;;;;;;;;;;5035070;28;20038;-63
2022/10/11 06:24:08;;;;;;;5.20;1.90;;;;;;;;;;5035817;28;20036;-62
2022/10/11 06:26:34;;;;;;;6.07;1.73;;;;;;;;;;5039243;28;20068;-62
2022/10/11 06:29:00;;;;;;;3.20;2.53;;;;;;;;;;5026952;28;20029;-62
2022/10/11 06:31:26;;;;;;;8.27;2.30;;;;;;;;;;5028329;28;20068;-62
2022/10/11 06:33:53;;;;;;;7.97;1.88;;;;;;;;;;5031449;28;20069;-62
2022/10/11 06:36:19;;;;;;;2.70;2.03;;;;;;;;;;5032209;28;20444;-62
2022/10/11 06:38:45;;;;;;;9.90;2.40;;;;;;;;;;5032691;28;20485;-62
2022/10/11 06:41:18;;;;;;;4.47;1.85;;;;;;;;;;5033861;28;20112;-62
2022/10/11 06:43:45;;;;;;;5.88;2.22;;;;;;;;;;5034091;28;20377;-62
2022/10/11 06:46:11;;;;;;;4.40;1.98;;;;;;;;;;5033785;28;20049;-62
2022/10/11 06:48:42;;;;;;;4.47;2.17;;;;;;;;;;5033651;28;20037;-62
2022/10/11 06:51:09;;;;;;;6.30;2.55;;;;;;;;;;5033927;28;20034;-62
2022/10/11 06:53:35;;;;;;;7.15;2.80;;;;;;;;;;5034068;28;20509;-62
2022/10/11 06:56:05;;;;;;;5.45;2.97;;;;;;;;;;5033676;28;20026;-62
2022/10/11 06:58:31;;;;;;;9.73;3.03;;;;;;;;;;5034160;28;20045;-62
2022/10/11 07:01:05;;;;;;;9.25;2.72;;;;;;;;;;5033275;28;20393;-62
2022/10/11 07:03:31;;;;;;;4.05;2.28;;;;;;;;;;5033594;28;20032;-62
2022/10/11 07:06:08;;;;;;;6.40;3.00;;;;;;;;;;5033728;28;20108;-62
2022/10/11 07:08:34;;;;;;;12.23;2.97;;;;;;;;;;5033792;28;20028;-62
2022/10/11 07:11:08;;;;;;;12.00;2.83;;;;;;;;;;5033384;28;20506;-62
2022/10/11 07:13:34;;;;;;;6.55;3.40;;;;;;;;;;5033671;28;20401;-62
2022/10/11 07:16:01;;;;;;;19.38;6.05;;;;;;;;;;5033014;28;20470;-62
2022/10/11 07:18:27;;;;;;;94.32;34.30;;;;;;;;;;5033595;28;20034;-62
2022/10/11 07:20:53;;;;;;;46.00;16.63;;;;;;;;;;5033464;28;20124;-62
2022/10/11 07:23:19;;;;;;;51.50;18.95;;;;;;;;;;5033288;28;20104;-62
2022/10/11 07:25:45;;;;;;;28.70;11.73;;;;;;;;;;5033539;28;20029;-62
2022/10/11 07:28:12;;;;;;;20.55;8.18;;;;;;;;;;5033260;28;20021;-62
2022/10/11 07:30:39;;;;;;;24.25;12.25;;;;;;;;;;5032871;28;20025;-63
2022/10/11 07:33:06;;;;;;;25.42;12.60;;;;;;;;;;5033184;28;20033;-63
2022/10/11 07:35:35;;;;;;;28.15;14.45;;;;;;;;;;5033278;28;20028;-63
2022/10/11 07:38:01;;;;;;;33.30;12.43;;;;;;;;;;5032866;28;20028;-63
2022/10/11 07:40:27;;;;;;;36.90;14.07;;;;;;;;;;5033110;28;20465;-63
2022/10/11 07:42:53;;;;;;;28.90;12.65;;;;;;;;;;5032970;28;20030;-63
2022/10/11 07:45:19;;;;;;;22.52;9.50;;;;;;;;;;5032509;28;20024;-63
2022/10/11 07:47:45;;;;;;;42.75;15.23;;;;;;;;;;5032883;28;20029;-63
2022/10/11 07:50:12;;;;;;;63.45;22.23;;;;;;;;;;5032772;28;20389;-62
2022/10/11 07:52:39;;;;;;;72.60;23.35;;;;;;;;;;5032764;28;20033;-62
2022/10/11 07:55:05;;;;;;;40.00;16.00;;;;;;;;;;5032797;28;20028;-62
2022/10/11 07:57:32;;;;;;;24.23;8.73;;;;;;;;;;5032802;28;20025;-62
2022/10/11 07:59:58;;;;;;;23.95;10.85;;;;;;;;;;5032571;28;20127;-62
2022/10/11 08:02:24;;;;;;;28.75;9.48;;;;;;;;;;5032476;28;20039;-62
2022/10/11 08:04:50;;;;;;;21.05;9.02;;;;;;;;;;5032767;28;20385;-62
2022/10/11 08:07:16;;;;;;;27.98;8.48;;;;;;;;;;5032481;28;20061;-62
2022/10/11 08:09:42;;;;;;;20.55;8.30;;;;;;;;;;5032544;28;20061;-62
2022/10/11 08:12:09;;;;;;;23.42;9.68;;;;;;;;;;5031784;28;20116;-62
2022/10/11 08:14:35;;;;;;;15.15;7.47;;;;;;;;;;5032291;28;20559;-62
2022/10/11 08:17:01;;;;;;;22.52;10.80;;;;;;;;;;5032389;28;20025;-62
2022/10/11 08:19:27;;;;;;;19.58;7.65;;;;;;;;;;5032369;28;20057;-62
2022/10/11 08:21:53;;;;;;;18.00;7.85;;;;;;;;;;5032535;28;20435;-62
2022/10/11 08:24:19;;;;;;;28.88;8.70;;;;;;;;;;5032418;28;20030;-62
2022/10/11 08:26:46;;;;;;;18.33;7.60;;;;;;;;;;5032286;28;20079;-62
2022/10/11 08:29:13;;;;;;;17.40;5.80;;;;;;;;;;5031977;28;20371;-62
2022/10/11 08:31:39;;;;;;;12.82;5.25;;;;;;;;;;5032315;28;20123;-62
2022/10/11 08:34:05;;;;;;;12.50;5.63;;;;;;;;;;5031963;28;20401;-62
2022/10/11 08:36:32;;;;;;;12.63;5.28;;;;;;;;;;5032251;28;20029;-62
2022/10/11 08:38:58;;;;;;;22.77;6.45;;;;;;;;;;5032294;28;20520;-62
2022/10/11 08:41:44;;;;;;;23.17;9.30;;;;;;;;;;5032077;28;20033;-62
2022/10/11 08:44:25;;;;;;;12.50;5.50;;;;;;;;;;5031717;28;20508;-63
2022/10/11 08:46:56;;;;;;;20.15;4.82;;;;;;;;;;5032246;28;20035;-63
2022/10/11 08:49:24;;;;;;;19.48;5.72;;;;;;;;;;5032156;28;20025;-63
2022/10/11 08:52:01;;;;;;;23.25;6.95;;;;;;;;;;5032190;28;20394;-63
2022/10/11 08:54:43;;;;;;;12.73;5.30;;;;;;;;;;5032262;28;20424;-63
2022/10/11 08:57:13;;;;;;;16.07;4.67;;;;;;;;;;5032153;28;20253;-63
2022/10/11 08:59:42;;;;;;;10.55;4.50;;;;;;;;;;5031771;28;20489;-63
2022/10/11 09:02:11;;;;;;;15.50;4.22;;;;;;;;;;5031804;28;20068;-63
2022/10/11 09:04:38;;;;;;;20.20;3.65;;;;;;;;;;5032211;28;20029;-63
2022/10/11 09:07:06;;;;;;;14.68;3.35;;;;;;;;;;5031834;28;20029;-63
2022/10/11 09:09:51;;;;;;;11.02;3.75;;;;;;;;;;5031699;28;20046;-63
2022/10/11 09:12:20;;;;;;;14.77;3.10;;;;;;;;;;5031432;28;20096;-63
2022/10/11 09:15:07;;;;;;;21.35;3.67;;;;;;;;;;5032049;28;20397;-63
2022/10/11 09:17:52;;;;;;;14.88;3.20;;;;;;;;;;5031856;28;20041;-63
2022/10/11 09:20:31;;;;;;;19.17;4.82;;;;;;;;;;5031772;28;20033;-63
2022/10/11 09:22:57;;;;;;;16.48;3.88;;;;;;;;;;5033217;28;20497;-63
2022/10/11 09:25:31;;;;;;;17.30;3.15;;;;;;;;;;5035517;28;20524;-63
2022/10/11 09:28:15;;;;;;;13.05;3.00;;;;;;;;;;5035396;28;20513;-63
2022/10/11 09:30:47;;;;;;;15.75;3.22;;;;;;;;;;5035589;28;20051;-63
2022/10/11 09:33:18;;;;;;;17.52;3.22;;;;;;;;;;5035421;28;20025;-63
2022/10/11 09:35:49;;;;;;;14.73;2.63;;;;;;;;;;5035427;28;20408;-63
2022/10/11 09:38:28;;;;;;;12.50;2.95;;;;;;;;;;5034996;28;20037;-63
2022/10/11 09:41:00;;;;;;;20.90;4.18;;;;;;;;;;5035004;28;20386;-63
2022/10/11 09:43:26;;;;;;;15.80;3.38;;;;;;;;;;5035185;28;20112;-63
2022/10/11 09:45:52;;;;;;;20.42;3.47;;;;;;;;;;5035369;28;20040;-63
2022/10/11 09:48:28;;;;;;;12.93;4.15;;;;;;;;;;5035234;28;20381;-63
2022/10/11 09:51:06;;;;;;;14.00;3.20;;;;;;;;;;5035196;28;20394;-61
2022/10/11 09:53:55;;;;;;;14.63;4.18;;;;;;;;;;5035095;28;20111;-61
2022/10/11 09:56:22;;;;;;;14.52;3.25;;;;;;;;;;5034108;28;20072;-61
2022/10/11 09:58:49;;;;;;;12.98;3.85;;;;;;;;;;5034948;28;20026;-61
2022/10/11 10:01:22;;;;;;;14.73;4.18;;;;;;;;;;5034843;28;20046;-62
2022/10/11 10:04:02;;;;;;;12.30;3.20;;;;;;;;;;5034871;28;20029;-61
2022/10/11 10:06:28;;;;;;;11.52;3.10;;;;;;;;;;5034906;28;20479;-61
2022/10/11 10:08:54;;;;;;;17.20;3.63;;;;;;;;;;5034919;28;20030;-62
2022/10/11 10:11:21;;;;;;;19.58;3.63;;;;;;;;;;5034229;28;20120;-62
2022/10/11 10:13:52;;;;;;;11.95;3.22;;;;;;;;;;5034786;28;20045;-62
2022/10/11 10:16:19;;;;;;;18.38;3.63;;;;;;;;;;5034520;28;20044;-61
2022/10/11 10:18:54;;;;;;;13.68;3.63;;;;;;;;;;5034713;28;20037;-61
2022/10/11 10:21:26;;;;;;;17.45;3.63;;;;;;;;;;5034404;28;20029;-62
2022/10/11 10:23:56;;;;;;;16.10;3.53;;;;;;;;;;5034850;28;20474;-62
2022/10/11 10:26:23;;;;;;;17.48;3.72;;;;;;;;;;5034099;28;20276;-62
2022/10/11 10:28:55;;;;;;;13.95;4.18;;;;;;;;;;5034479;28;20116;-61
2022/10/11 10:31:23;;;;;;;14.33;2.93;;;;;;;;;;5034194;28;20030;-61
2022/10/11 10:33:51;;;;;;;6.55;2.95;;;;;;;;;;5033895;28;20260;-61
2022/10/11 10:36:21;;;;;;;10.55;2.00;;;;;;;;;;5033843;28;20083;-61
2022/10/11 10:38:50;;;;;;;16.67;2.53;;;;;;;;;;5030790;28;20041;-61
2022/10/11 10:41:17;;;;;;;11.55;2.53;;;;;;;;;;5029959;28;20029;-61
2022/10/11 10:43:48;;;;;;;13.23;2.67;;;;;;;;;;5034339;28;20021;-61
2022/10/11 10:46:23;;;;;;;11.73;2.25;;;;;;;;;;5034317;28;20048;-61
2022/10/11 10:49:08;;;;;;;9.13;2.10;;;;;;;;;;5033574;28;20112;-62
2022/10/11 10:51:53;;;;;;;11.68;2.10;;;;;;;;;;5041281;28;20401;-61
2022/10/11 10:54:19;;;;;;;8.82;2.03;;;;;;;;;;5040454;28;20025;-62
2022/10/11 10:56:48;;;;;;;11.68;2.10;;;;;;;;;;5041637;28;20040;-61
2022/10/11 10:59:17;;;;;;;8.95;1.90;;;;;;;;;;5033686;28;20446;-61
2022/10/11 11:01:49;;;;;;;9.80;2.35;;;;;;;;;;5041696;28;20087;-61
2022/10/11 11:04:35;;;;;;;17.58;2.70;;;;;;;;;;5048776;28;20501;-61
2022/10/11 11:07:17;;;;;;;10.30;2.35;;;;;;;;;;5029020;28;20028;-62
2022/10/11 11:09:53;;;;;;;8.63;1.75;;;;;;;;;;5030218;28;20041;-61
2022/10/11 11:12:38;;;;;;;6.00;1.70;;;;;;;;;;5032034;28;20029;-62
2022/10/11 11:15:20;;;;;;;8.90;2.30;;;;;;;;;;5026974;28;20025;-61
2022/10/11 11:17:46;;;;;;;5.57;1.70;;;;;;;;;;5034012;28;20432;-61
2022/10/11 11:20:15;;;;;;;8.40;1.70;;;;;;;;;;5031812;28;20017;-62
2022/10/11 11:23:04;;;;;;;7.10;1.90;;;;;;;;;;5030582;28;20524;-62
2022/10/11 11:25:46;;;;;;;16.77;3.58;;;;;;;;;;5026525;28;20171;-61
2022/10/11 11:28:30;;;;;;;10.55;2.22;;;;;;;;;;5029317;28;20030;-61
2022/10/11 11:30:57;;;;;;;6.30;1.75;;;;;;;;;;5030229;28;20040;-61
2022/10/11 11:33:32;;;;;;;6.15;2.28;;;;;;;;;;5027682;28;20021;-61
2022/10/11 11:36:01;;;;;;;8.95;1.75;;;;;;;;;;5026068;28;20049;-61
2022/10/11 11:38:39;;;;;;;10.98;1.95;;;;;;;;;;5025056;28;20076;-62
2022/10/11 11:41:11;;;;;;;9.23;1.70;;;;;;;;;;5028515;28;20045;-62
2022/10/11 11:43:39;;;;;;;3.70;1.40;;;;;;;;;;5028267;28;20033;-61
2022/10/11 11:46:09;;;;;;;9.15;1.60;;;;;;;;;;5030861;28;20482;-61
2022/10/11 11:48:35;;;;;;;7.30;2.17;;;;;;;;;;5028829;28;20065;-61
2022/10/11 11:51:07;;;;;;;9.02;1.50;;;;;;;;;;5038742;28;20079;-61
2022/10/11 11:53:39;;;;;;;12.55;1.80;;;;;;;;;;5045265;28;20037;-61
2022/10/11 11:56:34;;;;;;;10.43;1.80;;;;;;;;;;5030545;28;20058;-62
2022/10/11 11:59:19;;;;;;;7.13;1.45;;;;;;;;;;4960775;28;20479;-61
2022/10/11 12:02:00;;;;;;;7.90;1.70;;;;;;;;;;4969939;28;20050;-61
2022/10/11 12:04:29;;;;;;;8.98;1.70;;;;;;;;;;4970939;28;20466;-61
2022/10/11 12:07:18;;;;;;;9.05;1.45;;;;;;;;;;4971124;28;20027;-61
2022/10/11 12:09:49;;;;;;;7.05;1.60;;;;;;;;;;4959922;28;20034;-61
2022/10/11 12:12:27;;;;;;;10.45;1.52;;;;;;;;;;4971112;28;20592;-61
2022/10/11 12:15:11;;;;;;;9.07;1.50;;;;;;;;;;4969583;28;20125;-61
2022/10/11 12:17:52;;;;;;;6.20;1.38;;;;;;;;;;4969109;28;20509;-61
2022/10/11 12:20:30;;;;;;;10.50;2.72;;;;;;;;;;4970487;28;20049;-61
2022/10/11 12:22:58;;;;;;;3.80;1.30;;;;;;;;;;4968854;28;20094;-61
2022/10/11 12:25:28;;;;;;;9.93;1.70;;;;;;;;;;4953893;28;20548;-61
2022/10/11 12:27:56;;;;;;;7.50;1.45;;;;;;;;;;4969432;28;20037;-61
2022/10/11 12:30:40;;;;;;;11.80;1.92;;;;;;;;;;4968452;28;20020;-61
2022/10/11 12:33:14;;;;;;;7.38;1.42;;;;;;;;;;4951279;28;20410;-62
2022/10/11 12:35:47;;;;;;;8.45;2.03;;;;;;;;;;5016178;28;20041;-61
2022/10/11 12:38:19;;;;;;;8.80;1.83;;;;;;;;;;5046204;28;20029;-61
2022/10/11 12:40:46;;;;;;;4.43;1.42;;;;;;;;;;5047980;28;20029;-61
2022/10/11 12:43:15;;;;;;;7.68;2.38;;;;;;;;;;5049914;28;20025;-62
2022/10/11 12:45:46;;;;;;;6.50;1.52;;;;;;;;;;5047037;28;20037;-62
2022/10/11 12:48:18;;;;;;;8.57;1.70;;;;;;;;;;5049110;28;20033;-61
2022/10/11 12:50:51;;;;;;;4.40;1.30;;;;;;;;;;5032684;28;20041;-62
2022/10/11 12:53:17;;;;;;;4.55;1.30;;;;;;;;;;5046824;28;20111;-62
2022/10/11 12:55:57;;;;;;;10.20;1.60;;;;;;;;;;5020870;28;20026;-62
2022/10/11 12:58:25;;;;;;;5.88;1.05;;;;;;;;;;5036687;28;20048;-62
2022/10/11 13:00:51;;;;;;;8.70;2.22;;;;;;;;;;5047036;28;20028;-61
2022/10/11 13:03:36;;;;;;;7.15;1.75;;;;;;;;;;5044720;28;20029;-62
2022/10/11 13:06:15;;;;;;;6.30;1.63;;;;;;;;;;5035116;28;20029;-61
2022/10/11 13:08:43;;;;;;;6.43;2.38;;;;;;;;;;5035730;28;20021;-62
2022/10/11 13:11:09;;;;;;;5.88;1.33;;;;;;;;;;5036175;28;20075;-61
2022/10/11 13:13:49;;;;;;;8.85;2.08;;;;;;;;;;5036172;28;20029;-61
2022/10/11 13:16:17;;;;;;;10.23;1.33;;;;;;;;;;5036369;28;20036;-61
2022/10/11 13:18:43;;;;;;;7.30;1.80;;;;;;;;;;5034254;28;20033;-62
2022/10/11 13:21:27;;;;;;;11.43;1.70;;;;;;;;;;5035307;28;20068;-62
2022/10/11 13:23:54;;;;;;;7.30;1.80;;;;;;;;;;5036934;28;20030;-61
2022/10/11 13:26:20;;;;;;;7.25;1.83;;;;;;;;;;5035592;28;20030;-61
2022/10/11 13:28:47;;;;;;;11.18;1.52;;;;;;;;;;5034605;28;20029;-61
2022/10/11 13:31:13;;;;;;;6.07;1.60;;;;;;;;;;5036035;28;20037;-62
2022/10/11 13:33:40;;;;;;;4.70;1.30;;;;;;;;;;5035795;28;20513;-62
2022/10/11 13:36:12;;;;;;;10.48;1.50;;;;;;;;;;5035995;28;20021;-62
2022/10/11 13:38:39;;;;;;;7.57;1.65;;;;;;;;;;5033273;28;20037;-61
2022/10/11 13:41:07;;;;;;;6.90;1.42;;;;;;;;;;5035782;28;20017;-62
2022/10/11 13:43:33;;;;;;;6.53;1.67;;;;;;;;;;5034511;28;20124;-62
2022/10/11 13:46:01;;;;;;;8.75;1.73;;;;;;;;;;5037313;28;20030;-62
2022/10/11 13:48:27;;;;;;;4.10;1.45;;;;;;;;;;5037955;28;20021;-62
2022/10/11 13:51:15;;;;;;;9.95;1.85;;;;;;;;;;5041413;28;20029;-61
2022/10/11 13:54:00;;;;;;;9.07;2.03;;;;;;;;;;5034450;28;20504;-61
2022/10/11 13:56:26;;;;;;;6.53;1.88;;;;;;;;;;5033561;28;20036;-61
2022/10/11 13:58:54;;;;;;;8.32;2.05;;;;;;;;;;5025435;28;20602;-62
2022/10/11 14:01:20;;;;;;;4.65;1.52;;;;;;;;;;5033249;28;20061;-62
2022/10/11 14:03:48;;;;;;;7.25;1.50;;;;;;;;;;5032451;28;20032;-62
2022/10/11 14:06:14;;;;;;;7.57;2.03;;;;;;;;;;5039682;28;20025;-62
2022/10/11 14:08:49;;;;;;;7.35;1.48;;;;;;;;;;5035400;28;20124;-62
2022/10/11 14:11:15;;;;;;;8.68;2.80;;;;;;;;;;5023802;28;20042;-61
2022/10/11 14:13:46;;;;;;;8.73;1.77;;;;;;;;;;5035859;28;20061;-61
2022/10/11 14:16:13;;;;;;;6.20;1.52;;;;;;;;;;5032073;28;20058;-61
2022/10/11 14:18:41;;;;;;;7.20;1.70;;;;;;;;;;5032786;28;20043;-62
2022/10/11 14:21:37;;;;;;;6.75;1.35;;;;;;;;;;5029936;28;20029;-61
2022/10/11 14:24:09;;;;;;;4.95;1.40;;;;;;;;;;5039195;28;20045;-61
2022/10/11 14:26:37;;;;;;;5.75;1.52;;;;;;;;;;5027844;28;20047;-61
2022/10/11 14:29:12;;;;;;;4.28;1.55;;;;;;;;;;5030609;28;20028;-61
2022/10/11 14:31:40;;;;;;;4.20;1.13;;;;;;;;;;5030729;28;20561;-61
2022/10/11 14:34:07;;;;;;;6.25;1.35;;;;;;;;;;5030490;28;20033;-61
2022/10/11 14:36:33;;;;;;;6.18;1.42;;;;;;;;;;5036234;28;20030;-62
2022/10/11 14:38:59;;;;;;;6.68;1.40;;;;;;;;;;5029792;28;20060;-62
2022/10/11 14:41:26;;;;;;;8.02;1.50;;;;;;;;;;5029679;28;20091;-62
2022/10/11 14:43:55;;;;;;;9.75;1.70;;;;;;;;;;5035997;28;20141;-62
2022/10/11 14:46:22;;;;;;;6.07;1.65;;;;;;;;;;5038298;28;20036;-61
2022/10/11 14:48:49;;;;;;;5.63;1.58;;;;;;;;;;5035894;28;20037;-62
2022/10/11 14:51:17;;;;;;;3.75;0.90;;;;;;;;;;5031047;28;20029;-61
2022/10/11 14:53:45;;;;;;;6.30;1.42;;;;;;;;;;5032199;28;20050;-61